Issaquah, WA

3:29 AM PDT on September 03, 2015 (GMT -0700)
MesoWest | | Change Station
CLOSE
Current Station
Personal Weather Station
Location: Issaquah, WA
Elevation: 80 ft
Nearby Weather Stations

Elev 80 ft 47.53 °N, 121.99 °W | Updated 1 hour ago

Overcast
Overcast
48.0 °F
Feels Like 48.0 °F
N
1.0
Wind Variable Wind from East
Gusts 5.0 mph

Today
High -- | Low -- °F
--% Chance of Precip.
Yesterday
High -- | Low -- °F
Precip. -- in
6:29 AM 7:44 PM
Waning Gibbous, 71% visible
Pressure 29.99 in
Visibility 10.0 miles
Clouds Overcast 1700 ft
Dew Point 47.0 °F
Humidity 96%
Rainfall in
Snow Depth Not available.
UV 0 out of 12
Pollen .50 out of 12
Air Quality Not available.
Flu Activity Not available.
METAR KRNT 030953Z AUTO 00000KT 10SM OVC017 11/09 A2997 RMK AO2 SLP153 T01110094
Pressure 29.99 in
Visibility 10.0 miles
Clouds Overcast 1700 ft
Dew Point 47.0 °F
Humidity 96%
Rainfall in
Snow Depth Not available.
UV 0 out of 12
Pollen .50 out of 12
Air Quality Not available.
Flu Activity Not available.
METAR KRNT 030953Z AUTO 00000KT 10SM OVC017 11/09 A2997 RMK AO2 SLP153 T01110094

10-Day Weather Forecast

×

Almanac

Astronomy

Sep. 03, 2015 Rise Set
Actual Time
Civil Twilight
Nautical Twilight
Astronomical Twilight
Moon
Length of Visible Light
Length of Day
Tomorrow will be .
, % of the Moon is Illuminated

Today's Extremes

State Highs State Lows

Community

WunderPhotos

Upload Photos

1,851,929 photos uploaded!

WunderBlogs® & News

Nearby

Air Quality

  Air Quality AQ Index Pollutant
Not available.

Snow Depth

Station Depth Elevation

Earthquake Activity

City Distance Mag. Time & Date
Minimum magnitude displayed is 2.5.

Coastal Water Temperatures

Place Temperature

Stations

Nearby Weather Stations

Station Location Temp. Windchill Dew Point Humidity Wind Precip. Elev Updated Type